createdAt,value
2019-03-12T00:02:51.377Z,101573.58
2019-03-12T00:06:56.539Z,101559.33
2019-03-12T00:11:01.683Z,101561.96
2019-03-12T00:15:06.998Z,101563.82
2019-03-12T00:19:12.199Z,101561.28
2019-03-12T00:23:17.365Z,101553.38
2019-03-12T00:27:22.624Z,101555.23
2019-03-12T00:31:27.765Z,101557.33
2019-03-12T00:35:32.968Z,101549.52
2019-03-12T00:39:38.094Z,101561.59
2019-03-12T00:43:43.456Z,101565.01
2019-03-12T00:47:48.731Z,101559.69
2019-03-12T00:51:53.896Z,101563.98
2019-03-12T00:55:59.051Z,101561.30
2019-03-12T01:00:04.472Z,101543.62
2019-03-12T01:04:11.246Z,101543.62
2019-03-12T01:08:16.333Z,101559.27
2019-03-12T01:12:21.445Z,101541.39
2019-03-12T01:16:26.631Z,101535.71
2019-03-12T01:20:31.833Z,101532.58
2019-03-12T01:24:37.954Z,101528.64
2019-03-12T01:28:43.233Z,101526.75
2019-03-12T01:32:48.761Z,101516.42
2019-03-12T01:36:54.040Z,101511.16
2019-03-12T01:40:59.197Z,101502.16
2019-03-12T01:45:04.742Z,101505.05
2019-03-12T01:49:09.990Z,101499.08
2019-03-12T01:53:15.180Z,101499.98
2019-03-12T01:57:20.426Z,101492.26
2019-03-12T02:01:25.743Z,101495.45
2019-03-12T02:05:31.121Z,101481.06
2019-03-12T02:09:36.285Z,101472.09
2019-03-12T02:13:41.448Z,101471.64
2019-03-12T02:17:46.637Z,101454.81
2019-03-12T02:21:51.779Z,101450.09
2019-03-12T02:25:57.967Z,101437.88
2019-03-12T02:30:03.119Z,101437.20
2019-03-12T02:34:09.618Z,101432.02
2019-03-12T02:38:14.798Z,101428.83
2019-03-12T02:42:19.908Z,101420.18
2019-03-12T02:46:25.183Z,101420.18
2019-03-12T02:50:30.437Z,101414.97
2019-03-12T02:54:35.682Z,101419.69
2019-03-12T02:58:41.681Z,101408.84
2019-03-12T03:02:47.932Z,101411.95
2019-03-12T03:07:00.599Z,101403.27
2019-03-12T03:11:05.779Z,101399.55
2019-03-12T03:15:14.168Z,101383.02
2019-03-12T03:19:19.582Z,101385.81
2019-03-12T03:23:24.835Z,101381.70
2019-03-12T03:27:30.136Z,101370.81
2019-03-12T03:31:35.296Z,101366.83
2019-03-12T03:35:40.418Z,101364.14
2019-03-12T03:39:46.516Z,101367.00
2019-03-12T03:43:53.234Z,101365.84
2019-03-12T03:47:58.386Z,101362.08
2019-03-12T03:52:03.889Z,101358.48
2019-03-12T03:56:10.088Z,101355.54
2019-03-12T04:00:17.509Z,101345.00
2019-03-12T04:04:22.720Z,101335.38
2019-03-12T04:08:27.912Z,101321.52
2019-03-12T04:12:33.465Z,101316.80
2019-03-12T04:16:38.736Z,101312.39
2019-03-12T04:20:48.715Z,101309.02
2019-03-12T04:24:53.885Z,101303.48
2019-03-12T04:28:59.030Z,101290.27
2019-03-12T04:33:04.501Z,101291.06
2019-03-12T04:37:09.671Z,101290.59
2019-03-12T04:41:15.189Z,101282.31
2019-03-12T04:45:20.355Z,101277.77
2019-03-12T04:49:25.547Z,101262.05
2019-03-12T04:53:30.765Z,101250.87
2019-03-12T04:57:36.037Z,101247.68
2019-03-12T05:01:41.325Z,101253.96
2019-03-12T05:05:46.683Z,101242.89
2019-03-12T05:09:52.817Z,101232.53
2019-03-12T05:14:22.601Z,101230.70
2019-03-12T05:18:27.814Z,101233.31
2019-03-12T05:22:32.916Z,101221.00
2019-03-12T05:26:48.346Z,101210.75
2019-03-12T05:30:53.579Z,101216.01
2019-03-12T05:34:58.816Z,101209.09
2019-03-12T05:39:06.640Z,101192.61
2019-03-12T05:43:13.006Z,101185.91
2019-03-12T05:47:18.182Z,101183.67
2019-03-12T05:51:23.437Z,101182.16
2019-03-12T05:55:28.636Z,101184.73
2019-03-12T05:59:33.867Z,101178.98
2019-03-12T06:03:39.273Z,101169.96
2019-03-12T06:07:44.487Z,101159.83
2019-03-12T06:11:49.741Z,101153.30
2019-03-12T06:15:56.443Z,101152.64
2019-03-12T06:20:01.618Z,101154.31
2019-03-12T06:24:06.960Z,101146.03
2019-03-12T06:28:14.920Z,101134.31
2019-03-12T06:32:42.127Z,101126.39
2019-03-12T06:37:06.902Z,101124.09
2019-03-12T06:41:21.314Z,101121.82
2019-03-12T06:45:44.636Z,101123.21
2019-03-12T06:50:04.792Z,101127.03
2019-03-12T06:54:35.444Z,101115.02
2019-03-12T06:58:49.314Z,101099.53
2019-03-12T07:03:13.041Z,101098.64
2019-03-12T07:07:35.689Z,101067.83
2019-03-12T07:11:46.547Z,101059.75
2019-03-12T07:16:16.980Z,101051.94
2019-03-12T07:20:53.388Z,101033.07
2019-03-12T07:25:16.214Z,101033.47
2019-03-12T07:29:34.766Z,101032.34
2019-03-12T07:33:58.578Z,101031.88
2019-03-12T07:38:20.851Z,101022.78
2019-03-12T07:42:45.519Z,101002.22
2019-03-12T07:47:05.779Z,101008.94
2019-03-12T07:51:44.884Z,100985.94
2019-03-12T07:56:02.164Z,100981.53
2019-03-12T08:00:15.285Z,100972.14
2019-03-12T08:04:30.941Z,100955.79
2019-03-12T08:08:56.850Z,100941.04
2019-03-12T08:13:19.457Z,100938.77
2019-03-12T08:17:43.683Z,100936.81
2019-03-12T08:22:07.789Z,100922.13
2019-03-12T08:26:37.651Z,100921.83
2019-03-12T08:31:11.233Z,100925.48
2019-03-12T08:35:41.576Z,100896.34
2019-03-12T08:39:53.689Z,100891.36
2019-03-12T08:44:08.352Z,100871.52
2019-03-12T08:48:27.831Z,100876.08
2019-03-12T08:52:45.684Z,100864.67
2019-03-12T08:57:05.559Z,100854.55
2019-03-12T09:01:21.945Z,100848.28
2019-03-12T09:05:46.448Z,100827.46
2019-03-12T09:10:19.339Z,100833.30
2019-03-12T09:14:53.526Z,100823.66
2019-03-12T09:19:17.054Z,100805.30
2019-03-12T09:23:49.472Z,100802.63
2019-03-12T09:28:27.786Z,100779.54
2019-03-12T09:33:02.674Z,100772.52
2019-03-12T09:37:27.860Z,100764.42
2019-03-12T09:41:51.348Z,100748.67
2019-03-12T09:46:15.525Z,100739.38
2019-03-12T09:50:49.758Z,100721.69
2019-03-12T09:55:09.717Z,100720.54
2019-03-12T09:59:34.204Z,100686.00
2019-03-12T10:03:52.219Z,100677.28
2019-03-12T10:08:13.791Z,100667.63
2019-03-12T10:12:36.654Z,100658.14
2019-03-12T10:17:13.047Z,100648.67
2019-03-12T10:21:55.159Z,100622.61
2019-03-12T10:26:19.216Z,100605.30
2019-03-12T10:30:41.827Z,100601.11
2019-03-12T10:35:05.940Z,100582.99
2019-03-12T10:40:07.624Z,100583.92
2019-03-12T10:44:27.671Z,100562.59
2019-03-12T10:48:34.253Z,100551.12
2019-03-12T10:52:42.190Z,100547.98
2019-03-12T10:56:48.252Z,100517.91
2019-03-12T11:00:53.486Z,100517.91
2019-03-12T11:04:58.621Z,100522.78
2019-03-12T11:09:07.927Z,100515.98
2019-03-12T11:13:14.700Z,100511.59
2019-03-12T11:17:20.011Z,100504.34
2019-03-12T11:21:25.157Z,100490.36
2019-03-12T11:25:30.328Z,100490.36
2019-03-12T11:29:35.459Z,100475.67
2019-03-12T11:33:40.793Z,100468.30
2019-03-12T11:37:45.951Z,100465.94
2019-03-12T11:41:52.114Z,100442.20
2019-03-12T11:45:57.414Z,100439.34
2019-03-12T11:50:02.551Z,100407.19
2019-03-12T11:54:08.982Z,100412.34
2019-03-12T11:58:14.069Z,100399.45
2019-03-12T12:02:19.182Z,100385.67
2019-03-12T12:06:24.464Z,100376.64
2019-03-12T12:10:29.786Z,100352.94
2019-03-12T12:14:34.938Z,100347.48
2019-03-12T12:18:40.212Z,100343.73
2019-03-12T12:22:45.388Z,100348.24
2019-03-12T12:26:50.509Z,100333.94
2019-03-12T12:30:55.668Z,100300.48
2019-03-12T12:35:00.836Z,100308.94
2019-03-12T12:39:07.691Z,100301.61
2019-03-12T12:43:14.481Z,100271.20
2019-03-12T12:47:19.950Z,100255.94
2019-03-12T12:51:25.066Z,100241.69
2019-03-12T12:55:30.166Z,100227.13
2019-03-12T12:59:35.238Z,100208.41
2019-03-12T13:03:40.477Z,100191.27
2019-03-12T13:07:46.632Z,100190.25
2019-03-12T13:11:52.032Z,100178.56
2019-03-12T13:15:57.190Z,100158.62
2019-03-12T13:20:04.844Z,100147.62
2019-03-12T13:24:10.063Z,100140.84
2019-03-12T13:28:15.239Z,100105.14
2019-03-12T13:32:20.520Z,100099.35
2019-03-12T13:36:25.695Z,100089.85
2019-03-12T13:40:30.862Z,100072.18
2019-03-12T13:44:35.986Z,100040.72
2019-03-12T13:48:41.174Z,100034.19
2019-03-12T13:52:46.422Z,100041.70
2019-03-12T13:56:51.588Z,100023.31
2019-03-12T14:00:56.800Z,100006.09
2019-03-12T14:05:01.983Z,100010.58
2019-03-12T14:09:07.590Z,99976.19
2019-03-12T14:13:14.452Z,99955.31
2019-03-12T14:17:19.657Z,99937.25
2019-03-12T14:21:24.748Z,99934.58
2019-03-12T14:25:29.891Z,99893.06
2019-03-12T14:29:35.004Z,99893.06
2019-03-12T14:33:40.178Z,99890.59
2019-03-12T14:37:45.394Z,99888.14
2019-03-12T14:41:50.447Z,99887.03
2019-03-12T14:45:55.585Z,99868.38
2019-03-12T14:50:01.656Z,99852.30
2019-03-12T14:54:06.896Z,99850.39
2019-03-12T14:58:12.069Z,99822.33
2019-03-12T15:02:20.530Z,99804.09
2019-03-12T15:06:25.660Z,99794.48
2019-03-12T15:10:30.889Z,99779.17
2019-03-12T15:14:36.281Z,99780.69
2019-03-12T15:18:41.405Z,99760.36
2019-03-12T15:22:46.807Z,99744.73
2019-03-12T15:26:51.929Z,99737.14
2019-03-12T15:30:57.064Z,99724.74
2019-03-12T15:35:02.247Z,99698.75
2019-03-12T15:39:09.077Z,99675.13
2019-03-12T15:43:16.088Z,99674.80
2019-03-12T15:47:21.222Z,99652.25
2019-03-12T15:51:26.367Z,99642.43
2019-03-12T15:55:31.609Z,99626.13
2019-03-12T15:59:36.814Z,99608.46
2019-03-12T16:03:43.738Z,99566.70
2019-03-12T16:07:48.851Z,99572.49
2019-03-12T16:11:53.963Z,99568.06
2019-03-12T16:15:59.124Z,99558.36
2019-03-12T16:20:04.733Z,99556.80
2019-03-12T16:24:09.971Z,99550.53
2019-03-12T16:28:15.052Z,99535.78
2019-03-12T16:32:20.196Z,99530.14
2019-03-12T16:36:25.357Z,99505.84
2019-03-12T16:40:30.514Z,99522.23
2019-03-12T16:44:35.591Z,99518.41
2019-03-12T16:48:40.698Z,99505.60
2019-03-12T16:52:48.134Z,99497.58
2019-03-12T16:56:53.246Z,99471.12
2019-03-12T17:00:58.493Z,99465.12
2019-03-12T17:05:05.562Z,99452.80
2019-03-12T17:09:10.599Z,99447.04
2019-03-12T17:13:17.443Z,99434.83
2019-03-12T17:17:22.569Z,99425.12
2019-03-12T17:21:27.940Z,99397.23
2019-03-12T17:25:33.017Z,99379.62
2019-03-12T17:29:38.166Z,99369.82
2019-03-12T17:33:43.390Z,99364.20
2019-03-12T17:37:48.691Z,99334.83
2019-03-12T17:41:59.907Z,99333.75
2019-03-12T17:46:05.072Z,99302.88
2019-03-12T17:50:10.675Z,99298.17
2019-03-12T17:54:15.774Z,99292.57
2019-03-12T17:58:21.843Z,99295.45
2019-03-12T18:02:27.010Z,99272.80
2019-03-12T18:06:34.868Z,99260.23
2019-03-12T18:10:38.900Z,99266.22
2019-03-12T18:14:44.061Z,99253.53
2019-03-12T18:18:50.128Z,99243.81
2019-03-12T18:22:55.247Z,99237.97
2019-03-12T18:27:00.561Z,99212.20
2019-03-12T18:31:05.683Z,99193.55
2019-03-12T18:35:10.987Z,99186.97
2019-03-12T18:39:17.246Z,99184.44
2019-03-12T18:43:22.382Z,99172.34
2019-03-12T18:47:27.556Z,99172.45
2019-03-12T18:51:32.729Z,99171.23
2019-03-12T18:56:04.910Z,99187.88
2019-03-12T19:00:12.671Z,99181.76
2019-03-12T19:04:18.101Z,99182.61
2019-03-12T19:08:23.210Z,99179.98
2019-03-12T19:12:28.302Z,99175.57
2019-03-12T19:16:33.434Z,99187.56
2019-03-12T19:20:38.541Z,99183.95
2019-03-12T19:24:45.365Z,99189.45
2019-03-12T19:28:50.607Z,99177.38
2019-03-12T19:33:01.778Z,99191.97
2019-03-12T19:37:06.976Z,99179.77
2019-03-12T19:41:12.462Z,99163.84
2019-03-12T19:45:17.628Z,99157.11
2019-03-12T19:49:22.767Z,99151.61
2019-03-12T19:53:27.935Z,99178.16
2019-03-12T19:57:33.088Z,99131.65
2019-03-12T20:01:39.089Z,99120.19
2019-03-12T20:05:44.273Z,99111.92
2019-03-12T20:10:12.646Z,99128.80
2019-03-12T20:14:49.666Z,99121.14
2019-03-12T20:19:28.009Z,99109.89
2019-03-12T20:24:21.821Z,99134.31
2019-03-12T20:29:05.062Z,99166.15
2019-03-12T20:34:05.661Z,99160.61
2019-03-12T20:38:54.454Z,99183.94
2019-03-12T20:43:36.280Z,99155.28
2019-03-12T20:48:03.398Z,99189.97
2019-03-12T20:52:44.266Z,99260.06
2019-03-12T20:57:29.111Z,99307.87
2019-03-12T21:02:05.985Z,99324.19
2019-03-12T21:06:48.612Z,99348.85
2019-03-12T21:11:29.488Z,99367.38
2019-03-12T21:16:11.337Z,99387.29
2019-03-12T21:20:53.924Z,99410.42
2019-03-12T21:25:39.156Z,99438.48
2019-03-12T21:29:46.172Z,99432.97
2019-03-12T21:33:51.295Z,99455.38
2019-03-12T21:37:56.402Z,99453.78
2019-03-12T21:42:01.551Z,99468.83
2019-03-12T21:46:06.684Z,99474.52
2019-03-12T21:50:11.892Z,99458.53
2019-03-12T21:54:16.988Z,99460.98
2019-03-12T21:58:22.082Z,99483.48
2019-03-12T22:02:27.208Z,99493.18
2019-03-12T22:06:32.332Z,99492.11
2019-03-12T22:10:38.448Z,99501.17
2019-03-12T22:14:43.625Z,99510.70
2019-03-12T22:18:48.795Z,99531.06
2019-03-12T22:23:04.266Z,99509.61
2019-03-12T22:27:09.412Z,99537.34
2019-03-12T22:31:14.527Z,99532.83
2019-03-12T22:35:19.621Z,99525.16
2019-03-12T22:39:24.819Z,99525.16
2019-03-12T22:43:30.012Z,99537.38
2019-03-12T22:47:35.384Z,99545.02
2019-03-12T22:51:40.545Z,99543.74
2019-03-12T22:55:45.654Z,99559.55
2019-03-12T22:59:50.731Z,99568.56
2019-03-12T23:04:13.687Z,99568.27
2019-03-12T23:08:36.584Z,99567.55
2019-03-12T23:12:42.956Z,99592.67
2019-03-12T23:16:48.154Z,99595.05
2019-03-12T23:20:53.658Z,99606.09
2019-03-12T23:24:59.817Z,99611.78
2019-03-12T23:29:05.096Z,99608.24
2019-03-12T23:33:11.503Z,99625.70
2019-03-12T23:37:16.689Z,99620.09
2019-03-12T23:41:21.852Z,99639.86
2019-03-12T23:45:26.979Z,99640.61
2019-03-12T23:49:33.753Z,99645.40
2019-03-12T23:53:38.884Z,99634.48
2019-03-12T23:57:44.128Z,99647.88
